Lake George, Minnesota
Current Conditions -  °F | °C
As of 10:33 AM on Friday 31 Oct 2014 (Local Time) from KBJI Reporting Station
Clear Clear  
Wind Chill: 27°   Ceiling: Unl
Heat Index: 27°   Visibility: 7mi
Dew Point: 19°   Wind: 0mph
Humidity: 70%   Direction: NA
Pressure: 30.58"   Gusts: NA
Location:  47.2°N, 94.99°W
Report Text: KBJI 311533Z AUTO 00000KT 7SM CLR M03/M07 A3058 RMK AO2 T10271075
Loading
Personal Weather Stations






























Interactive Weather Map
Tropical Storm Tracking
New forecast layout! Learn more

10-Day Weather Forecast

Advertisements
Track Severe Weather on mobile